Slater, MO (65349)

11:53 AM CDT on September 23, 2014 (GMT -0500)
Miami | Change Station
CLOSE
Current Station
Personal Weather Station
Location: Miami, MO
Elevation: 804 ft
Nearby Weather Stations

Elev 804 ft 39.29 °N, 93.23 °W | Updated 4 minutes ago

Clear
Clear
73.8 °F
Feels Like 77 °F
N
7.4
Wind Variable Wind from SE

Today
High -- | Low -- °F
--% Chance of Precip.
Yesterday
High -- | Low -- °F
Precip. -- in
7:00 AM 7:07 PM
Waning Crescent, 0% visible
Pressure 30.29 in
Visibility 7.0 miles
Clouds Clear
Heat Index 77 °F
Dew Point 55 °F
Humidity 52%
Rainfall 0.00 in
Snow Depth Not available.
UV 6 out of 12
Pollen 5.70 out of 12
Air Quality Not available.
Flu Activity Not available.
METAR KVER 231635Z AUTO 21008KT 170V230 7SM CLR 22/08 A3029 RMK AO2 LTG DSNT W T02190080

More Conditions Fewer Conditions

Pressure 30.29 in
Visibility 7.0 miles
Clouds Clear
Heat Index 77 °F
Dew Point 55 °F
Humidity 52%
Rainfall 0.00 in
Snow Depth Not available.
UV 6 out of 12
Pollen 5.70 out of 12
Air Quality Not available.
Flu Activity Not available.
METAR KVER 231635Z AUTO 21008KT 170V230 7SM CLR 22/08 A3029 RMK AO2 LTG DSNT W T02190080

More Conditions Fewer Conditions

10-Day Weather Forecast

Almanac

Astronomy

Sep. 23, 2014 Rise Set
Actual Time 7:00 AM CDT 7:07 PM CDT
Civil Twilight 6:34 AM CDT 7:34 PM CDT
Nautical Twilight 6:02 AM CDT 8:05 PM CDT
Astronomical Twilight 5:31 AM CDT 8:37 PM CDT
Moon 6:25 AM CDT 6:47 PM CDT
Length of Visible Light 13h 00m
Length of Day
12h 06m
Tomorrow will be 2m 32s shorter.
Waning Crescent, 0% of the Moon is Illuminated
Today
Waning Crescent
Sep 24
New
Oct 1
First Quarter
Oct 8
Full
Oct 15
Last Quarter

Today's Extremes

State Highs State Lows

Community

WunderPhotos

Upload Photos

1,755,750 photos uploaded!

WunderBlogs® & News

Nearby

Snow Depth

Station Depth Elevation
No new snow has been reported.

Earthquake Activity

City Distance Mag. Time & Date
No recent earthquake activity has been reported nearby.
Minimum magnitude displayed is 2.5.

Coastal Water Temperatures

Place Temperature
No Stations Reporting

Nearby Weather Stations